Time;durP1;ratioP1;P1;durP2;ratioP2;P2;SDS_P1;SDS_P2;PMS_P1;PMS_P2;Temp;Humidity;BMP_temperature;BMP_pressure;BME280_temperature;BME280_humidity;BME280_pressure;Samples;Min_cycle;Max_cycle;Signal;HPM_P1;HPM_P2
2023/10/16 03:49:14;;;;;;;2.93;1.53;;;;;;;8.05;59.63;101278.66;4890362;29;20266;-71
2023/10/16 04:07:22;;;;;;;3.97;1.83;;;;;;;8.20;58.55;101273.09;4798597;29;20273;-71
2023/10/16 06:14:12;;;;;;;11.57;3.20;;;;;;;7.79;61.83;101254.16;5069045;28;20192;-68
2023/10/16 06:16:41;;;;;;;11.10;3.50;;;;;;;7.84;61.59;101250.22;5068254;28;20280;-64
2023/10/16 06:19:18;;;;;;;18.17;3.83;;;;;;;7.87;61.30;101257.09;5068601;28;20670;-66
2023/10/16 06:21:47;;;;;;;12.87;4.23;;;;;;;7.87;61.32;101260.56;5069007;28;20595;-70
2023/10/16 06:24:25;;;;;;;11.50;4.17;;;;;;;7.87;61.43;101260.56;5068668;28;20692;-68
2023/10/16 06:26:54;;;;;;;15.93;5.50;;;;;;;7.91;61.46;101250.63;5069111;28;20305;-69
2023/10/16 06:29:24;;;;;;;13.63;4.20;;;;;;;7.94;61.56;101250.38;5068896;28;20197;-68
2023/10/16 06:31:58;;;;;;;27.33;5.73;;;;;;;7.97;61.66;101246.69;5049922;28;20573;-70
2023/10/16 06:34:27;;;;;;;15.80;3.47;;;;;;;8.01;61.85;101250.78;5068629;28;20201;-68
2023/10/16 06:36:58;;;;;;;12.40;3.13;;;;;;;8.04;61.68;101247.91;5068403;28;20224;-67
2023/10/16 06:39:29;;;;;;;9.47;3.00;;;;;;;8.06;61.95;101252.16;5068230;28;20288;-67
2023/10/16 06:41:57;;;;;;;14.17;3.07;;;;;;;8.11;61.75;101249.16;5068616;28;20241;-67
2023/10/16 06:44:29;;;;;;;21.87;4.17;;;;;;;8.12;61.64;101245.56;5067561;28;22034;-69
2023/10/16 06:47:00;;;;;;;23.33;4.30;;;;;;;8.14;61.65;101243.66;5067445;28;20199;-70
2023/10/16 06:49:35;;;;;;;9.57;3.13;;;;;;;8.13;61.74;101250.72;5065451;28;20197;-71
2023/10/16 06:52:04;;;;;;;10.27;2.80;;;;;;;8.18;61.59;101253.03;5066816;28;20212;-69
2023/10/16 06:54:37;;;;;;;7.07;2.90;;;;;;;8.20;61.55;101257.25;5065649;28;20218;-70
2023/10/16 06:57:10;;;;;;;7.80;2.63;;;;;;;8.22;61.48;101265.06;5067848;28;20283;-68
2023/10/16 06:59:39;;;;;;;8.80;2.27;;;;;;;8.24;61.34;101256.06;5067851;28;20264;-70
2023/10/16 07:02:15;;;;;;;8.73;3.47;;;;;;;8.27;61.74;101263.75;5066860;28;20726;-68
2023/10/16 07:04:45;;;;;;;8.37;3.40;;;;;;;8.32;61.96;101260.81;5066667;28;20997;-66
2023/10/16 07:07:15;;;;;;;8.97;3.90;;;;;;;8.39;62.20;101256.75;5064925;28;20238;-68
2023/10/16 07:09:48;;;;;;;11.43;3.10;;;;;;;8.48;61.90;101261.34;5065779;28;20205;-69
2023/10/16 07:12:17;;;;;;;7.23;2.77;;;;;;;8.52;62.20;101260.16;5043156;28;20210;-68
2023/10/16 07:14:55;;;;;;;11.10;3.83;;;;;;;8.61;62.03;101261.28;5052452;28;20269;-71
2023/10/16 07:17:24;;;;;;;11.33;3.23;;;;;;;8.66;62.05;101264.41;5052752;28;20203;-71
2023/10/16 07:19:58;;;;;;;9.07;3.10;;;;;;;8.75;61.82;101263.69;5054151;28;20292;-70
2023/10/16 07:22:31;;;;;;;7.03;3.17;;;;;;;8.76;62.11;101264.53;5054815;28;20313;-72
2023/10/16 07:25:22;;;;;;;13.23;3.53;;;;;;;8.78;62.21;101260.84;5054654;28;20199;-65
2023/10/16 07:27:57;;;;;;;6.97;3.30;;;;;;;8.86;62.02;101262.88;5055573;28;20242;-70
2023/10/16 07:30:27;;;;;;;8.07;3.57;;;;;;;8.89;61.89;101260.81;5052014;28;20204;-70
2023/10/16 07:32:55;;;;;;;8.53;4.10;;;;;;;8.93;61.65;101264.94;5055227;28;20199;-70
2023/10/16 07:35:25;;;;;;;9.83;3.90;;;;;;;9.00;61.50;101262.66;5052135;28;20203;-66
2023/10/16 07:37:54;;;;;;;8.67;3.50;;;;;;;9.04;61.55;101264.13;5055100;28;21055;-71
2023/10/16 07:40:23;;;;;;;8.70;4.10;;;;;;;9.11;61.70;101269.75;5050662;28;20278;-68
2023/10/16 07:42:52;;;;;;;11.33;3.90;;;;;;;9.12;61.33;101267.00;5051704;28;20740;-71
2023/10/16 07:45:20;;;;;;;11.60;4.00;;;;;;;9.17;61.45;101270.13;5052146;28;20243;-73
2023/10/16 07:47:50;;;;;;;7.37;3.97;;;;;;;9.24;61.21;101268.66;5055356;28;20295;-69
2023/10/16 07:50:19;;;;;;;10.10;4.13;;;;;;;9.31;61.37;101269.06;5057376;28;20204;-71
2023/10/16 07:52:48;;;;;;;10.37;4.50;;;;;;;9.32;61.27;101263.63;5052749;28;20211;-69
2023/10/16 07:55:19;;;;;;;10.03;4.50;;;;;;;9.37;61.34;101266.75;5053041;28;20610;-72
2023/10/16 07:57:48;;;;;;;8.27;4.17;;;;;;;9.42;61.46;101264.56;5055772;28;20203;-69
2023/10/16 08:00:25;;;;;;;13.90;4.53;;;;;;;9.46;61.38;101265.19;5054823;28;20215;-71
2023/10/16 08:03:04;;;;;;;11.87;4.80;;;;;;;9.49;61.52;101264.13;5055388;28;20212;-71
2023/10/16 08:05:33;;;;;;;13.07;4.97;;;;;;;9.51;61.33;101265.66;5056897;28;20208;-69
2023/10/16 08:08:11;;;;;;;7.93;4.80;;;;;;;9.53;61.50;101266.38;5055151;28;20254;-68
2023/10/16 08:10:42;;;;;;;10.43;5.13;;;;;;;9.58;61.62;101266.88;5055059;28;20194;-68
2023/10/16 08:13:13;;;;;;;9.70;4.43;;;;;;;9.70;61.58;101272.97;5053067;28;20204;-65
2023/10/16 08:15:44;;;;;;;10.43;4.90;;;;;;;9.78;61.55;101275.84;5053276;28;20222;-69
2023/10/16 08:18:13;;;;;;;14.67;5.37;;;;;;;9.84;61.78;101272.72;5052991;28;20235;-70
2023/10/16 08:21:00;;;;;;;12.77;4.60;;;;;;;9.91;61.53;101273.91;5052421;28;20219;-67
2023/10/16 08:23:35;;;;;;;10.73;5.47;;;;;;;10.03;61.32;101275.53;5055740;28;20247;-69
2023/10/16 08:26:14;;;;;;;11.30;5.00;;;;;;;10.20;60.85;101278.69;5052349;28;20227;-71
2023/10/16 08:28:45;;;;;;;11.73;5.07;;;;;;;10.31;61.21;101278.59;5051252;28;20219;-71
2023/10/16 08:31:23;;;;;;;17.03;5.83;;;;;;;10.44;60.67;101268.69;5050973;28;20206;-72
2023/10/16 08:33:54;;;;;;;13.43;5.10;;;;;;;10.57;60.25;101274.63;5053632;28;20213;-73
2023/10/16 08:36:22;;;;;;;13.37;5.97;;;;;;;10.68;59.84;101274.56;5051496;28;20223;-72
2023/10/16 08:38:55;;;;;;;11.60;5.93;;;;;;;10.78;60.03;101266.69;5053034;28;20255;-71
2023/10/16 08:41:30;;;;;;;10.07;5.43;;;;;;;10.88;60.12;101267.59;5052118;28;20201;-73
2023/10/16 08:44:04;;;;;;;9.60;5.40;;;;;;;11.02;60.00;101263.75;5052137;28;20213;-72
2023/10/16 08:46:34;;;;;;;17.73;6.00;;;;;;;11.13;59.89;101261.84;5052250;28;20205;-69
2023/10/16 08:49:03;;;;;;;10.13;5.73;;;;;;;11.32;59.17;101263.75;5051161;28;20218;-73
2023/10/16 08:51:31;;;;;;;11.93;5.40;;;;;;;11.55;58.67;101262.56;5055979;28;20241;-67
2023/10/16 08:54:03;;;;;;;12.00;5.50;;;;;;;11.86;57.63;101267.88;5051527;28;20227;-73
2023/10/16 08:56:31;;;;;;;10.07;5.53;;;;;;;12.54;56.17;101268.75;5053779;28;20296;-73
2023/10/16 08:59:04;;;;;;;12.57;5.73;;;;;;;13.26;54.11;101265.53;5051443;28;20726;-74
2023/10/16 09:01:32;;;;;;;11.83;5.47;;;;;;;14.69;50.39;101260.19;5051062;28;20196;-68
2023/10/16 09:04:05;;;;;;;13.20;6.47;;;;;;;15.83;47.55;101256.34;5053320;28;20237;-70
2023/10/16 09:06:36;;;;;;;11.63;6.10;;;;;;;18.24;42.26;101257.00;5052124;28;20237;-72
2023/10/16 09:09:12;;;;;;;14.20;6.30;;;;;;;19.30;39.50;101255.00;5051680;28;20199;-68
2023/10/16 09:11:40;;;;;;;14.33;6.00;;;;;;;18.69;39.05;101245.41;5053873;28;20199;-71
2023/10/16 09:14:13;;;;;;;10.03;6.47;;;;;;;17.52;41.29;101251.84;5054499;28;20532;-72
2023/10/16 09:16:48;;;;;;;13.23;6.63;;;;;;;16.42;44.10;101251.72;5052071;28;20229;-69
2023/10/16 09:19:16;;;;;;;12.10;6.10;;;;;;;15.80;45.13;101252.13;5051542;28;20201;-71
2023/10/16 09:21:44;;;;;;;13.33;5.80;;;;;;;15.09;47.28;101250.78;5055839;28;20254;-69
2023/10/16 09:24:14;;;;;;;15.63;5.83;;;;;;;14.52;47.30;101253.91;5056250;28;23364;-70
2023/10/16 09:26:45;;;;;;;13.93;6.33;;;;;;;14.10;49.00;101240.34;5052022;28;20215;-72
2023/10/16 09:29:17;;;;;;;10.70;5.50;;;;;;;13.79;48.94;101245.19;5051223;28;20279;-71
2023/10/16 09:31:45;;;;;;;10.30;5.10;;;;;;;13.51;50.05;101240.88;5053497;28;20208;-70
2023/10/16 09:34:17;;;;;;;12.40;6.27;;;;;;;13.29;51.58;101243.91;5051683;28;20318;-70
2023/10/16 09:37:14;;;;;;;11.70;5.90;;;;;;;13.08;50.69;101246.78;5053399;28;20269;-64
2023/10/16 09:39:40;;;;;;;15.03;5.83;;;;;;;12.95;51.89;101244.41;5048736;28;20646;-71
2023/10/16 09:42:12;;;;;;;13.87;5.70;;;;;;;12.86;52.64;101245.28;5048623;28;20325;-70
2023/10/16 09:44:44;;;;;;;9.50;5.60;;;;;;;12.88;52.64;101250.47;5050990;28;20215;-67
2023/10/16 09:47:30;;;;;;;11.57;5.87;;;;;;;12.89;52.85;101234.34;5049208;28;20200;-68
2023/10/16 09:50:00;;;;;;;14.03;6.10;;;;;;;12.93;52.55;101235.72;5052832;28;21073;-70
2023/10/16 09:52:31;;;;;;;12.43;5.70;;;;;;;12.85;51.52;101242.75;5048372;28;20203;-71
2023/10/16 09:55:05;;;;;;;12.80;5.50;;;;;;;12.79;52.33;101244.19;5053378;28;20194;-70
2023/10/16 09:57:38;;;;;;;10.67;5.03;;;;;;;12.76;52.91;101234.66;5053170;28;20200;-70
2023/10/16 10:00:23;;;;;;;12.40;6.07;;;;;;;12.73;53.13;101228.81;5052384;28;20289;-69
2023/10/16 10:02:52;;;;;;;9.57;5.50;;;;;;;12.76;52.49;101233.81;5051167;28;21013;-69
2023/10/16 10:05:23;;;;;;;10.10;5.40;;;;;;;12.82;52.97;101225.28;5035976;28;20237;-69
2023/10/16 10:07:58;;;;;;;10.60;5.97;;;;;;;12.87;52.63;101225.66;5051895;28;20678;-70
2023/10/16 10:13:33;;;;;;;12.47;5.10;;;;;;;12.89;51.87;101239.69;5052467;28;20218;-71
2023/10/16 10:16:12;;;;;;;10.10;4.83;;;;;;;12.94;52.69;101236.56;5050535;28;20239;-71
2023/10/16 10:18:47;;;;;;;10.30;3.93;;;;;;;12.99;52.49;101232.50;5050390;28;20359;-70
2023/10/16 10:21:27;;;;;;;10.90;4.47;;;;;;;12.94;52.10;101226.75;5051386;28;20294;-69
2023/10/16 10:24:00;;;;;;;12.07;4.70;;;;;;;12.98;52.54;101228.16;5053841;28;20254;-69
2023/10/16 10:26:32;;;;;;;12.07;4.53;;;;;;;13.12;51.57;101230.34;5056771;28;20210;-65
2023/10/16 10:29:09;;;;;;;9.57;4.50;;;;;;;13.12;52.24;101224.19;5052445;28;20206;-72
2023/10/16 10:31:38;;;;;;;10.40;4.20;;;;;;;13.02;50.95;101229.53;5052083;28;20212;-67
2023/10/16 10:34:24;;;;;;;6.50;3.13;;;;;;;13.00;51.70;101226.22;5051404;28;20291;-68
2023/10/16 10:36:53;;;;;;;6.50;2.60;;;;;;;12.93;50.98;101218.94;5052213;28;20292;-69
2023/10/16 10:39:43;;;;;;;6.87;2.10;;;;;;;12.86;50.83;101208.03;5050529;28;20328;-73
2023/10/16 10:42:24;;;;;;;7.57;2.17;;;;;;;12.84;51.10;101209.16;5053095;28;20228;-69
2023/10/16 10:45:17;;;;;;;9.27;3.20;;;;;;;12.91;51.26;101205.78;5032774;28;20855;-66
2023/10/16 10:47:46;;;;;;;9.83;3.20;;;;;;;12.96;50.89;101187.53;5053689;28;20640;-69
2023/10/16 10:50:14;;;;;;;7.37;2.80;;;;;;;12.95;51.50;101190.34;5054100;28;20208;-70
2023/10/16 10:52:46;;;;;;;5.97;2.87;;;;;;;12.98;51.28;101174.09;5039877;28;20616;-73
2023/10/16 10:55:21;;;;;;;7.63;2.60;;;;;;;13.03;51.59;101177.97;5056080;28;20206;-69
2023/10/16 10:57:58;;;;;;;6.43;2.50;;;;;;;13.10;51.31;101173.75;5055438;28;20551;-66
2023/10/16 11:01:01;;;;;;;6.30;2.33;;;;;;;13.19;50.47;101156.09;5056172;28;20211;-71
2023/10/16 11:03:34;;;;;;;6.93;2.93;;;;;;;13.29;50.10;101161.34;5057640;28;20235;-68
2023/10/16 11:06:02;;;;;;;8.00;2.90;;;;;;;13.35;50.18;101155.44;5058151;28;20330;-70
2023/10/16 11:08:35;;;;;;;7.33;2.80;;;;;;;13.35;50.60;101147.44;5055723;28;20206;-72
2023/10/16 11:11:05;;;;;;;4.27;2.50;;;;;;;13.43;50.70;101163.50;5053864;28;20811;-69
2023/10/16 11:13:44;;;;;;;6.43;2.50;;;;;;;13.48;50.12;101145.25;5053120;28;20505;-69
2023/10/16 11:16:12;;;;;;;7.73;2.67;;;;;;;13.68;49.55;101145.94;5054234;28;20939;-71
2023/10/16 11:18:58;;;;;;;6.73;2.70;;;;;;;13.95;48.91;101148.53;5055112;28;20576;-67
2023/10/16 11:21:28;;;;;;;4.43;2.20;;;;;;;14.14;48.57;101136.84;5055711;28;20333;-66
2023/10/16 11:24:00;;;;;;;4.87;2.60;;;;;;;14.36;47.90;101136.34;5054989;28;20228;-69
2023/10/16 11:26:28;;;;;;;7.13;3.00;;;;;;;14.65;46.96;101128.91;5054262;28;20211;-66
2023/10/16 11:29:00;;;;;;;6.47;2.67;;;;;;;14.97;46.28;101133.53;5054799;28;20323;-69
2023/10/16 11:31:28;;;;;;;6.70;2.50;;;;;;;15.08;45.58;101121.75;5055355;28;20212;-71
2023/10/16 11:34:06;;;;;;;5.43;2.50;;;;;;;15.07;45.36;101114.72;5054451;28;20238;-67
2023/10/16 11:36:35;;;;;;;6.53;2.90;;;;;;;15.01;46.25;101102.88;5052927;28;20212;-71
2023/10/16 11:39:19;;;;;;;8.47;3.00;;;;;;;15.20;45.21;101101.75;5037259;28;21067;-69
2023/10/16 11:41:51;;;;;;;7.30;2.50;;;;;;;15.55;44.40;101102.53;5054437;28;20223;-72
2023/10/16 11:44:32;;;;;;;7.20;2.50;;;;;;;15.31;44.76;101096.09;5053458;28;20243;-70
2023/10/16 11:47:03;;;;;;;8.83;2.17;;;;;;;15.10;44.73;101090.38;5051512;28;20860;-69
2023/10/16 11:49:35;;;;;;;5.53;2.40;;;;;;;14.97;45.27;101092.66;5053255;28;20298;-67
2023/10/16 11:52:20;;;;;;;4.80;2.00;;;;;;;14.86;45.43;101092.97;5033748;28;20934;-72
2023/10/16 11:54:52;;;;;;;5.87;2.43;;;;;;;14.79;45.79;101086.56;5054785;28;20203;-63
2023/10/16 11:57:23;;;;;;;9.67;2.40;;;;;;;14.75;46.09;101077.22;5054271;28;20294;-68
2023/10/16 11:59:52;;;;;;;6.33;2.60;;;;;;;14.83;46.01;101075.41;5055633;28;20320;-72
2023/10/16 12:02:22;;;;;;;4.70;1.60;;;;;;;14.83;45.82;101071.91;5052229;28;20248;-68
2023/10/16 12:04:50;;;;;;;6.00;2.00;;;;;;;14.80;45.79;101062.38;5050681;28;20255;-68
2023/10/16 12:07:18;;;;;;;10.30;2.33;;;;;;;14.67;46.08;101060.19;5054503;28;23397;-65
2023/10/16 12:09:51;;;;;;;4.57;2.27;;;;;;;14.71;45.92;101065.19;5054075;28;20685;-69
2023/10/16 12:12:39;;;;;;;10.47;2.33;;;;;;;14.65;46.13;101064.84;5055545;28;20211;-71
2023/10/16 12:15:10;;;;;;;6.33;2.33;;;;;;;14.64;46.03;101055.16;5053187;28;20212;-68
2023/10/16 12:17:43;;;;;;;7.73;2.17;;;;;;;14.52;45.90;101059.09;5051548;28;20247;-68
2023/10/16 12:20:12;;;;;;;7.87;2.37;;;;;;;14.43;46.63;101056.53;5052395;28;20198;-68
2023/10/16 12:22:40;;;;;;;5.37;1.87;;;;;;;14.53;46.34;101050.09;5051067;28;20648;-67
2023/10/16 12:25:09;;;;;;;6.03;2.50;;;;;;;15.53;44.67;101051.03;5056457;28;20234;-70
2023/10/16 12:27:38;;;;;;;5.53;2.13;;;;;;;15.68;44.14;101038.69;5056982;28;20200;-70
2023/10/16 12:30:13;;;;;;;4.17;1.90;;;;;;;15.55;44.37;101033.88;5055301;28;20212;-69
2023/10/16 12:32:41;;;;;;;7.57;1.90;;;;;;;15.65;44.13;101023.00;5055275;28;20260;-68
2023/10/16 12:35:11;;;;;;;10.03;2.03;;;;;;;16.64;42.59;101023.47;5054716;28;20215;-69
2023/10/16 12:37:40;;;;;;;7.23;1.80;;;;;;;17.60;40.49;101018.50;5055586;28;20204;-68
2023/10/16 12:40:24;;;;;;;5.40;2.20;;;;;;;18.07;40.10;101014.75;5052733;28;20218;-71
2023/10/16 12:42:55;;;;;;;8.30;2.10;;;;;;;17.60;40.32;101010.44;5054765;28;20720;-68
2023/10/16 12:45:26;;;;;;;12.00;2.40;;;;;;;17.14;41.81;101012.31;5053070;28;20692;-69
2023/10/16 12:47:56;;;;;;;5.00;1.60;;;;;;;16.83;41.94;101015.00;5036782;28;20646;-71
2023/10/16 12:50:27;;;;;;;5.17;1.60;;;;;;;16.67;42.31;101015.09;5051610;28;20651;-70
2023/10/16 12:52:56;;;;;;;5.13;1.70;;;;;;;16.65;42.80;101017.09;5051897;28;20294;-70
2023/10/16 12:55:24;;;;;;;6.67;1.80;;;;;;;16.67;42.71;101008.91;5053968;28;20212;-70
2023/10/16 12:57:53;;;;;;;3.90;1.83;;;;;;;16.67;42.42;101003.53;5051201;28;20204;-70
2023/10/16 13:00:22;;;;;;;6.80;1.70;;;;;;;16.70;42.40;101004.03;5055221;28;20322;-68
2023/10/16 13:02:52;;;;;;;4.83;1.73;;;;;;;16.64;42.22;101004.72;5051058;28;20258;-67
2023/10/16 13:05:24;;;;;;;3.57;1.50;;;;;;;16.66;42.55;100997.34;5050547;28;20231;-67
2023/10/16 13:07:53;;;;;;;5.63;1.70;;;;;;;16.67;42.20;100987.47;5055721;28;20250;-71
2023/10/16 13:10:28;;;;;;;6.00;1.67;;;;;;;16.54;42.20;100985.31;5051862;28;20207;-71
2023/10/16 13:12:59;;;;;;;6.93;1.83;;;;;;;16.34;42.17;100984.91;5053500;28;20211;-71
2023/10/16 13:15:29;;;;;;;9.33;2.43;;;;;;;16.12;42.49;100983.81;5054222;28;20232;-68
2023/10/16 13:18:01;;;;;;;5.87;1.70;;;;;;;15.90;42.68;100979.19;5052690;28;20244;-70
2023/10/16 13:20:29;;;;;;;4.93;1.43;;;;;;;15.70;43.39;100984.06;5051390;28;20396;-66
2023/10/16 13:23:00;;;;;;;8.87;1.70;;;;;;;15.52;43.73;100978.03;5054165;28;20211;-71
2023/10/16 13:25:31;;;;;;;4.87;1.40;;;;;;;15.38;43.49;100984.91;5052728;28;20273;-71
2023/10/16 13:28:01;;;;;;;3.70;1.20;;;;;;;15.24;43.89;100969.50;5052926;28;20196;-69
2023/10/16 13:30:31;;;;;;;6.50;1.27;;;;;;;15.15;44.51;100967.00;5052200;28;20196;-68
2023/10/16 13:33:06;;;;;;;4.07;1.40;;;;;;;15.04;44.19;100976.16;5037640;28;20207;-65
2023/10/16 13:35:39;;;;;;;5.80;1.47;;;;;;;14.98;44.04;100974.97;5051788;28;20225;-65
2023/10/16 13:38:09;;;;;;;2.97;1.00;;;;;;;14.89;44.49;100973.28;5054050;28;20203;-70
2023/10/16 13:40:38;;;;;;;3.30;1.30;;;;;;;14.83;44.72;100967.78;5055177;28;20297;-73
2023/10/16 13:43:10;;;;;;;3.20;1.10;;;;;;;14.80;44.64;100973.44;5053131;28;20446;-69
2023/10/16 13:45:40;;;;;;;4.40;1.10;;;;;;;14.79;44.76;100959.25;5050943;28;20222;-69
2023/10/16 13:48:11;;;;;;;3.80;1.07;;;;;;;14.81;44.27;100965.28;5052069;28;20208;-72
2023/10/16 13:50:40;;;;;;;3.57;1.20;;;;;;;14.78;44.58;100951.41;5052783;28;20226;-69
2023/10/16 13:53:10;;;;;;;2.63;1.00;;;;;;;14.74;45.10;100952.75;5052959;28;20207;-71
2023/10/16 13:55:39;;;;;;;6.33;1.30;;;;;;;14.74;43.93;100956.25;5054693;28;20561;-69
2023/10/16 13:58:07;;;;;;;3.03;0.80;;;;;;;14.70;44.79;100952.22;5055070;28;20200;-69
2023/10/16 14:00:36;;;;;;;4.07;0.97;;;;;;;14.66;45.05;100953.56;5055543;28;20207;-70
2023/10/16 14:03:09;;;;;;;4.37;1.07;;;;;;;14.65;45.25;100951.88;5054318;28;20218;-71
2023/10/16 14:05:44;;;;;;;4.97;1.07;;;;;;;14.64;44.48;100947.53;5051135;28;20227;-70
2023/10/16 14:08:14;;;;;;;8.17;1.67;;;;;;;14.63;44.32;100949.38;5053495;28;20199;-66
2023/10/16 14:10:49;;;;;;;4.73;1.53;;;;;;;14.63;45.16;100957.38;5052702;28;20208;-67
2023/10/16 14:13:21;;;;;;;4.63;1.50;;;;;;;14.63;45.40;100948.53;5052416;28;20305;-69
2023/10/16 14:15:51;;;;;;;3.17;0.90;;;;;;;14.66;44.25;100942.88;5051791;28;20199;-67
2023/10/16 14:18:23;;;;;;;7.97;1.33;;;;;;;14.66;43.05;100945.56;5052993;28;20195;-70
2023/10/16 14:20:53;;;;;;;5.40;1.10;;;;;;;14.62;44.67;100939.69;5056890;28;20200;-67
2023/10/16 14:23:28;;;;;;;4.07;1.23;;;;;;;14.60;45.20;100940.88;5054825;28;20200;-68
2023/10/16 14:25:58;;;;;;;5.27;1.77;;;;;;;14.56;44.68;100932.34;5056419;28;20244;-69
2023/10/16 14:28:32;;;;;;;3.20;1.13;;;;;;;14.52;44.90;100939.00;5055119;28;20207;-66
2023/10/16 14:31:01;;;;;;;6.20;1.80;;;;;;;14.48;45.43;100936.81;5056125;28;20194;-69
2023/10/16 14:33:30;;;;;;;9.77;1.80;;;;;;;14.43;45.63;100934.63;5057643;28;20200;-66
2023/10/16 14:36:01;;;;;;;4.50;1.43;;;;;;;14.40;45.73;100937.63;5057886;28;20316;-70
2023/10/16 14:38:30;;;;;;;4.67;1.60;;;;;;;14.38;46.01;100930.75;5056278;28;20971;-72
2023/10/16 14:41:04;;;;;;;4.53;1.83;;;;;;;14.37;46.21;100929.06;5056711;28;20200;-70
2023/10/16 14:43:33;;;;;;;2.93;0.80;;;;;;;14.34;46.23;100932.09;5058577;28;20238;-69
2023/10/16 14:46:01;;;;;;;3.60;1.30;;;;;;;14.34;46.54;100929.41;5057090;28;20255;-68
2023/10/16 14:48:29;;;;;;;4.40;1.27;;;;;;;14.33;46.15;100925.91;5058633;28;20269;-69
2023/10/16 14:50:57;;;;;;;5.97;1.60;;;;;;;14.30;46.15;100926.22;5058234;28;20216;-73
2023/10/16 14:53:28;;;;;;;4.40;1.10;;;;;;;14.25;45.76;100921.34;5059864;28;20228;-68
2023/10/16 14:55:56;;;;;;;3.57;1.50;;;;;;;14.24;46.56;100926.88;5057682;28;20204;-71
2023/10/16 14:58:24;;;;;;;3.90;1.33;;;;;;;14.22;46.52;100921.69;5057892;28;20253;-70
2023/10/16 15:01:16;;;;;;;5.57;1.43;;;;;;;14.18;46.86;100914.16;5058396;28;20211;-70
2023/10/16 15:03:44;;;;;;;4.80;1.43;;;;;;;14.17;46.88;100909.81;5056849;28;20786;-69
2023/10/16 15:06:15;;;;;;;3.13;1.10;;;;;;;14.14;46.45;100912.84;5060007;28;20231;-70
2023/10/16 15:08:45;;;;;;;2.87;1.10;;;;;;;14.08;46.69;100905.44;5056750;28;20197;-70
2023/10/16 15:11:14;;;;;;;6.20;1.10;;;;;;;14.04;46.75;100904.94;5054373;28;20705;-69
2023/10/16 15:13:43;;;;;;;1.97;0.80;;;;;;;14.00;46.72;100895.59;5056189;28;20577;-71
2023/10/16 15:16:11;;;;;;;4.23;1.30;;;;;;;13.97;46.00;100905.75;5053735;28;20218;-67
2023/10/16 15:18:39;;;;;;;4.00;1.20;;;;;;;13.94;46.86;100893.56;5053385;28;20200;-72
2023/10/16 15:21:08;;;;;;;5.87;1.70;;;;;;;13.92;46.71;100904.38;5054464;28;20210;-69
2023/10/16 15:23:37;;;;;;;3.60;1.30;;;;;;;13.86;46.55;100901.53;5057106;28;21077;-69
2023/10/16 15:26:06;;;;;;;4.13;1.47;;;;;;;13.84;46.73;100900.84;5055727;28;20281;-70
2023/10/16 15:28:35;;;;;;;9.53;1.27;;;;;;;13.84;46.82;100906.19;5052873;28;20214;-72
2023/10/16 15:31:23;;;;;;;6.77;1.30;;;;;;;13.83;47.04;100904.50;5056287;28;20208;-64
2023/10/16 15:33:53;;;;;;;9.83;1.33;;;;;;;13.80;46.93;100903.00;5055255;28;20203;-68
2023/10/16 15:36:21;;;;;;;2.43;0.97;;;;;;;13.77;46.24;100905.97;5055393;28;20212;-68
2023/10/16 15:38:49;;;;;;;6.53;1.30;;;;;;;13.71;45.90;100905.78;5053534;28;20681;-68
2023/10/16 15:41:18;;;;;;;4.57;1.10;;;;;;;13.66;46.74;100905.41;5056919;28;20212;-70
2023/10/16 15:43:46;;;;;;;2.63;0.97;;;;;;;13.62;46.87;100898.72;5057239;28;20203;-70
2023/10/16 15:46:28;;;;;;;5.83;0.97;;;;;;;13.57;47.65;100888.53;5058480;28;20684;-68
2023/10/16 15:48:59;;;;;;;3.10;1.13;;;;;;;13.53;47.33;100903.19;5052208;28;20212;-69
2023/10/16 15:51:30;;;;;;;5.07;1.30;;;;;;;13.52;46.98;100901.50;5054531;28;20215;-68
2023/10/16 15:53:59;;;;;;;5.43;1.20;;;;;;;13.48;47.99;100900.13;5055752;28;20211;-64
2023/10/16 15:56:30;;;;;;;3.33;1.20;;;;;;;13.47;47.67;100907.28;5056494;28;20215;-73
2023/10/16 15:58:58;;;;;;;5.93;1.70;;;;;;;13.45;47.98;100897.78;5055152;28;20194;-72
2023/10/16 16:01:26;;;;;;;4.50;1.60;;;;;;;13.46;48.30;100894.13;5053968;28;20203;-73
2023/10/16 16:03:57;;;;;;;4.63;1.10;;;;;;;13.43;48.81;100889.13;5053418;28;20261;-73
2023/10/16 16:06:31;;;;;;;4.23;1.23;;;;;;;13.40;48.97;100900.06;5054579;28;20312;-74
2023/10/16 16:08:59;;;;;;;5.77;1.40;;;;;;;13.38;49.20;100900.22;5051077;28;20268;-72
2023/10/16 16:11:29;;;;;;;4.03;1.50;;;;;;;13.33;49.38;100897.22;5052133;28;20212;-70
2023/10/16 16:13:57;;;;;;;3.67;1.80;;;;;;;13.28;49.62;100904.00;5055127;28;20208;-72
2023/10/16 16:16:25;;;;;;;6.50;1.77;;;;;;;13.23;49.83;100903.63;5054708;28;20616;-69
2023/10/16 16:18:53;;;;;;;6.67;1.67;;;;;;;13.17;50.10;100897.91;5052093;28;20214;-73
2023/10/16 16:21:21;;;;;;;5.73;1.63;;;;;;;13.17;50.36;100908.56;5052427;28;21164;-71
2023/10/16 16:23:49;;;;;;;5.70;1.63;;;;;;;13.15;50.68;100904.38;5054182;28;20210;-72
2023/10/16 16:26:20;;;;;;;4.30;1.57;;;;;;;13.14;50.72;100908.03;5053569;28;20280;-72
2023/10/16 16:28:50;;;;;;;7.77;2.60;;;;;;;13.10;51.08;100906.66;5055627;28;20312;-70
2023/10/16 16:31:20;;;;;;;5.97;1.97;;;;;;;13.08;51.15;100909.47;5054123;28;20291;-68
2023/10/16 16:33:50;;;;;;;6.50;2.20;;;;;;;13.05;51.39;100911.59;5055776;28;20204;-70
2023/10/16 16:36:19;;;;;;;6.93;1.60;;;;;;;13.07;51.27;100910.44;5050197;28;20263;-68
2023/10/16 16:38:50;;;;;;;3.47;1.50;;;;;;;13.10;51.15;100917.31;5053291;28;20247;-68
2023/10/16 16:41:20;;;;;;;4.90;2.10;;;;;;;13.09;51.59;100910.31;5052765;28;20197;-69
2023/10/16 16:43:51;;;;;;;5.37;1.83;;;;;;;13.09;51.53;100913.81;5052574;28;20655;-72
2023/10/16 16:46:20;;;;;;;5.23;1.93;;;;;;;13.05;51.81;100920.41;5051338;28;20303;-72
2023/10/16 16:48:49;;;;;;;4.93;1.80;;;;;;;13.03;51.98;100918.88;5052116;28;20205;-71
2023/10/16 16:51:17;;;;;;;4.70;2.20;;;;;;;13.04;52.22;100915.22;5051765;28;20216;-73
2023/10/16 16:53:45;;;;;;;5.03;1.70;;;;;;;12.99;51.96;100921.03;5049653;28;20292;-70
2023/10/16 16:56:15;;;;;;;3.97;2.00;;;;;;;12.94;52.22;100923.28;5049380;28;20221;-69
2023/10/16 16:58:42;;;;;;;5.13;1.73;;;;;;;12.91;52.61;100920.97;5054069;28;20196;-70
2023/10/16 17:01:12;;;;;;;7.10;2.07;;;;;;;12.92;52.76;100927.13;5050576;28;20290;-70
2023/10/16 17:03:40;;;;;;;5.37;1.80;;;;;;;12.91;53.02;100923.63;5052643;28;20276;-68
2023/10/16 17:06:08;;;;;;;6.60;1.90;;;;;;;12.92;53.02;100929.78;5052493;28;20234;-68
2023/10/16 17:08:36;;;;;;;7.23;2.30;;;;;;;12.88;52.98;100931.91;5052426;28;20292;-67
2023/10/16 17:11:09;;;;;;;6.70;1.90;;;;;;;12.90;53.10;100932.59;5051036;28;20240;-68
2023/10/16 17:13:37;;;;;;;6.83;2.23;;;;;;;12.88;52.98;100931.91;5054372;28;20206;-74
2023/10/16 17:16:07;;;;;;;6.13;1.73;;;;;;;12.91;53.13;100938.75;5054342;28;20249;-69
2023/10/16 17:18:37;;;;;;;11.83;1.90;;;;;;;12.88;53.36;100945.22;5051822;28;20820;-72
2023/10/16 17:21:05;;;;;;;8.60;1.80;;;;;;;12.84;53.46;100949.16;5051151;28;20530;-69
2023/10/16 17:23:33;;;;;;;5.33;1.73;;;;;;;12.86;53.35;100947.19;5054654;28;20207;-72
2023/10/16 17:26:01;;;;;;;3.60;1.60;;;;;;;12.81;53.48;100949.47;5052854;28;20322;-67
2023/10/16 17:28:30;;;;;;;6.03;1.70;;;;;;;12.73;53.99;100942.25;5052254;28;20250;-72
2023/10/16 17:30:58;;;;;;;5.80;1.87;;;;;;;12.74;53.84;100946.59;5052166;28;20201;-69
2023/10/16 17:33:27;;;;;;;6.70;1.87;;;;;;;12.74;53.84;100951.91;5053250;28;20232;-70
2023/10/16 17:36:02;;;;;;;7.43;2.33;;;;;;;12.74;53.81;100954.56;5051486;28;20200;-71
2023/10/16 17:38:30;;;;;;;6.70;1.93;;;;;;;12.73;53.80;100958.22;5054099;28;20712;-71
2023/10/16 17:40:57;;;;;;;3.73;1.77;;;;;;;12.74;53.92;100954.56;5054457;28;20200;-70
2023/10/16 17:43:27;;;;;;;6.00;1.80;;;;;;;12.77;53.73;100956.91;5054224;28;20247;-73
2023/10/16 17:45:57;;;;;;;5.40;1.63;;;;;;;12.75;53.66;100950.09;5050232;28;20647;-69
2023/10/16 17:48:25;;;;;;;5.70;2.00;;;;;;;12.71;53.86;100954.84;5053279;28;20219;-72
2023/10/16 17:50:54;;;;;;;7.20;1.83;;;;;;;12.73;53.88;100960.03;5051760;28;20205;-72
2023/10/16 17:53:25;;;;;;;3.80;1.40;;;;;;;12.72;53.89;100953.03;5053834;28;20291;-74
2023/10/16 17:55:54;;;;;;;5.13;1.77;;;;;;;12.72;54.05;100958.34;5057686;28;20288;-70